Time;durP1;ratioP1;P1;durP2;ratioP2;P2;SDS_P1;SDS_P2;PMS_P1;PMS_P2;Temp;Humidity;BMP_temperature;BMP_pressure;BME280_temperature;BME280_humidity;BME280_pressure;Samples;Min_cycle;Max_cycle;Signal;HPM_P1;HPM_P2
2023/03/20 00:01:27;;;;;;;;;;;;;;;12.06;100.00;101058.34;5025173;28;19944;-42
2023/03/20 00:03:52;;;;;;;;;;;;;;;11.82;100.00;101079.94;5023093;28;19925;-42
2023/03/20 00:06:18;;;;;;;;;;;;;;;11.83;100.00;101110.03;5022639;28;19917;-42
2023/03/20 00:08:44;;;;;;;;;;;;;;;11.98;100.00;101140.16;5024366;28;19978;-43
2023/03/20 00:11:29;;;;;;;;;;;;;;;12.19;100.00;101165.03;5022714;28;19921;-43
2023/03/20 00:14:07;;;;;;;;;;;;;;;12.38;100.00;101186.50;5024073;28;19963;-42
2023/03/20 00:16:33;;;;;;;;;;;;;;;12.33;100.00;101178.75;5024368;28;19970;-42
2023/03/20 00:18:59;;;;;;;;;;;;;;;12.29;100.00;101163.28;5022086;28;19971;-43
2023/03/20 00:21:24;;;;;;;;;;;;;;;12.51;100.00;101164.03;5022997;28;20340;-42
2023/03/20 00:23:49;;;;;;;;;;;;;;;12.58;100.00;101162.28;5022288;28;20313;-42
2023/03/20 00:26:17;;;;;;;;;;;;;;;12.68;100.00;101153.59;5024094;28;19917;-42
2023/03/20 00:28:43;;;;;;;;;;;;;;;13.16;100.00;101155.00;5023866;28;19921;-43
2023/03/20 00:31:14;;;;;;;;;;;;;;;13.04;100.00;101105.06;5023375;28;19921;-43
2023/03/20 00:33:39;;;;;;;;;;;;;;;13.50;100.00;101095.22;5023659;28;19921;-43
2023/03/20 00:36:05;;;;;;;;;;;;;;;13.89;100.00;101050.72;5022780;28;20042;-42
2023/03/20 00:38:30;;;;;;;;;;;;;;;13.51;100.00;100962.31;5023420;28;20008;-43
2023/03/20 00:40:55;;;;;;;;;;;;;;;13.05;100.00;100936.09;5022906;28;20101;-43
2023/03/20 00:43:21;;;;;;;;;;;;;;;12.89;100.00;100941.44;5021216;28;20023;-43
2023/03/20 00:45:46;;;;;;;;;;;;;;;13.21;100.00;100957.47;5022755;28;19928;-43
2023/03/20 00:48:15;;;;;;;;;;;;;;;13.66;100.00;100948.31;5022587;28;19964;-43
2023/03/20 00:50:40;;;;;;;;;;;;;;;14.60;100.00;100908.84;5020753;28;19924;-42
2023/03/20 00:53:08;;;;;;;;;;;;;;;14.25;100.00;100795.41;5019559;28;19952;-42
2023/03/20 00:55:33;;;;;;;;;;;;;;;14.91;100.00;100754.38;5019527;28;19921;-43
2023/03/20 00:57:59;;;;;;;;;;;;;;;14.71;100.00;100632.91;5021395;28;19996;-42
2023/03/20 01:00:41;;;;;;;;;;;;;;;14.01;100.00;100563.56;5022267;28;19933;-42
2023/03/20 01:03:11;;;;;;;;;;;;;;;13.20;100.00;100571.13;5020999;28;20293;-42
2023/03/20 01:05:37;;;;;;;;;;;;;;;12.83;100.00;100615.69;5024798;28;20015;-42
2023/03/20 01:08:04;;;;;;;;;;;;;;;12.79;100.00;100711.44;5023968;28;19943;-42
2023/03/20 01:10:30;;;;;;;;;;;;;;;12.68;100.00;100756.38;5009240;28;19974;-42
2023/03/20 01:12:55;;;;;;;;;;;;;;;12.73;100.00;100818.38;5020233;28;19921;-42
2023/03/20 01:15:21;;;;;;;;;;;;;;;12.33;100.00;100847.19;5020682;28;19927;-43
2023/03/20 01:17:47;;;;;;;;;;;;;;;12.51;100.00;100911.63;5019737;28;19966;-43
2023/03/20 01:20:23;;;;;;;;;;;;;;;13.03;100.00;100953.34;5022741;28;19921;-43
2023/03/20 01:22:48;;;;;;;;;;;;;;;13.89;100.00;100960.06;5021451;28;19932;-43
2023/03/20 01:25:14;;;;;;;;;;;;;;;13.59;100.00;100887.13;5023214;28;19917;-43
2023/03/20 01:27:40;;;;;;;;;;;;;;;13.68;100.00;100879.22;5023149;28;20814;-42
2023/03/20 01:30:10;;;;;;;;;;;;;;;12.64;100.00;100826.22;5020392;28;19921;-43
2023/03/20 01:32:36;;;;;;;;;;;;;;;13.59;100.00;100934.59;5022239;28;19932;-42
2023/03/20 01:35:01;;;;;;;;;;;;;;;11.66;100.00;100849.44;5022303;28;19921;-42
2023/03/20 01:37:26;;;;;;;;;;;;;;;11.69;100.00;100954.38;5021051;28;19925;-42
2023/03/20 01:39:52;;;;;;;;;;;;;;;11.60;100.00;101037.00;5020922;28;20039;-43
2023/03/20 01:42:17;;;;;;;;;;;;;;;11.40;100.00;101091.22;5020471;28;21796;-42
2023/03/20 01:44:42;;;;;;;;;;;;;;;11.27;100.00;101150.59;5019901;28;20015;-42
2023/03/20 01:47:15;;;;;;;;;;;;;;;11.38;100.00;101219.38;5020360;28;20456;-42
2023/03/20 01:49:59;;;;;;;;;;;;;;;11.31;100.00;101275.25;5022115;28;20715;-43
2023/03/20 01:52:24;;;;;;;;;;;;;;;11.09;100.00;101320.78;5022197;28;19931;-43
2023/03/20 01:54:50;;;;;;;;;;;;;;;11.36;97.89;101384.50;5022246;28;20443;-43
2023/03/20 01:57:20;;;;;;;;;;;;;;;11.20;97.50;101427.44;5020044;28;19921;-42
2023/03/20 01:59:48;;;;;;;;;;;;;;;10.93;96.59;101471.97;5019193;28;19921;-43
2023/03/20 02:02:14;;;;;;;;;;;;;;;10.38;96.20;101508.50;5021982;28;19924;-43
2023/03/20 02:04:40;;;;;;;;;;;;;;;10.44;95.55;101567.78;5021007;28;19968;-43
2023/03/20 02:07:06;;;;;;;;;;;;;;;10.17;97.73;101598.38;5019974;28;20019;-42
2023/03/20 02:09:31;;;;;;;;;;;;;;;10.19;100.00;101658.47;5022302;28;19920;-42
2023/03/20 02:11:56;;;;;;;;;;;;;;;10.14;100.00;101715.06;5021178;28;19931;-43
2023/03/20 02:14:21;;;;;;;;;;;;;;;10.54;100.00;101776.63;5023511;28;20150;-43
2023/03/20 02:16:47;;;;;;;;;;;;;;;10.26;100.00;101814.81;5022522;28;19924;-43
2023/03/20 02:19:16;;;;;;;;;;;;;;;10.62;100.00;101868.59;5025882;28;19932;-42
2023/03/20 02:22:02;;;;;;;;;;;;;;;10.59;100.00;101916.69;5023955;28;19975;-42
2023/03/20 02:24:43;;;;;;;;;;;;;;;10.61;100.00;101956.22;5028720;28;19947;-42
2023/03/20 02:27:11;;;;;;;;;;;;;;;10.40;100.00;101988.53;5026715;28;19924;-43
2023/03/20 02:29:41;;;;;;;;;;;;;;;10.57;100.00;102022.31;5025336;28;19923;-43
2023/03/20 02:32:18;;;;;;;;;;;;;;;10.81;100.00;102057.94;5025923;28;19928;-43
2023/03/20 02:34:50;;;;;;;;;;;;;;;11.02;100.00;102082.34;5023546;28;19943;-43
2023/03/20 02:37:34;;;;;;;;;;;;;;;10.35;100.00;102026.22;5026512;28;19996;-42
2023/03/20 02:40:18;;;;;;;;;;;;;;;10.72;100.00;102056.91;5022787;28;19928;-42
2023/03/20 02:42:57;;;;;;;;;;;;;;;10.54;100.00;102049.75;5021417;28;19976;-43
2023/03/20 02:45:26;;;;;;;;;;;;;;;10.70;100.00;102064.63;5019211;28;20467;-42
2023/03/20 02:48:01;;;;;;;;;;;;;;;10.24;100.00;102038.00;5023997;28;20516;-43
2023/03/20 02:50:33;;;;;;;;;;;;;;;10.37;100.00;102054.59;5019769;28;20049;-43
2023/03/20 02:53:05;;;;;;;;;;;;;;;10.31;100.00;102057.94;5023006;28;19921;-43
2023/03/20 02:55:38;;;;;;;;;;;;;;;9.95;100.00;102042.63;5019826;28;20359;-43
2023/03/20 02:58:13;;;;;;;;;;;;;;;10.18;100.00;102071.38;5019646;28;19921;-43
2023/03/20 03:00:46;;;;;;;;;;;;;;;10.53;100.00;102082.34;5024364;28;20023;-43
2023/03/20 03:03:17;;;;;;;;;;;;;;;10.05;100.00;102054.81;5020239;28;20187;-43
2023/03/20 03:05:49;;;;;;;;;;;;;;;10.25;100.00;102075.81;5022300;28;19978;-43
2023/03/20 03:08:14;;;;;;;;;;;;;;;10.17;100.00;102073.09;5021629;28;19925;-43
2023/03/20 03:11:00;;;;;;;;;;;;;;;10.57;100.00;102094.47;5020936;28;19931;-43
2023/03/20 03:13:26;;;;;;;;;;;;;;;10.54;100.00;102071.22;5020868;28;19987;-43
2023/03/20 03:15:52;;;;;;;;;;;;;;;10.70;100.00;102064.63;5021953;28;19979;-43
2023/03/20 03:18:18;;;;;;;;;;;;;;;10.37;100.00;102027.13;5022597;28;20050;-43
2023/03/20 03:20:44;;;;;;;;;;;;;;;10.42;100.00;102028.09;5019133;28;20310;-44
2023/03/20 03:23:10;;;;;;;;;;;;;;;10.55;100.00;102031.72;5020742;28;19920;-43
2023/03/20 03:25:37;;;;;;;;;;;;;;;10.25;100.00;102006.28;5020044;28;19920;-43
2023/03/20 03:28:04;;;;;;;;;;;;;;;10.25;100.00;102009.72;5023230;28;19925;-42
2023/03/20 03:30:30;;;;;;;;;;;;;;;10.09;100.00;102002.56;5021597;28;20011;-43
2023/03/20 03:33:02;;;;;;;;;;;;;;;10.21;100.00;102001.91;5020797;28;20703;-43
2023/03/20 03:35:27;;;;;;;;;;;;;;;9.85;100.00;101982.34;5022246;28;19921;-43
2023/03/20 03:37:52;;;;;;;;;;;;;;;10.01;100.00;102010.16;5022121;28;19956;-43
2023/03/20 03:40:24;;;;;;;;;;;;;;;10.45;100.00;102028.13;5021845;28;19987;-43
2023/03/20 03:43:10;;;;;;;;;;;;;;;10.39;100.00;102002.25;5022401;28;20868;-43
2023/03/20 03:45:37;;;;;;;;;;;;;;;9.95;100.00;101950.81;5019123;28;20374;-43
2023/03/20 03:48:06;;;;;;;;;;;;;;;10.48;100.00;101977.50;5022085;28;20415;-43
2023/03/20 03:50:36;;;;;;;;;;;;;;;10.52;100.00;101967.25;5019499;28;19921;-43
2023/03/20 03:53:03;;;;;;;;;;;;;;;10.81;100.00;101954.81;5020321;28;19923;-43
2023/03/20 03:55:29;;;;;;;;;;;;;;;10.76;100.00;101935.81;5019719;28;19917;-43
2023/03/20 03:57:58;;;;;;;;;;;;;;;10.72;100.00;101908.28;5022598;28;19971;-43
2023/03/20 04:00:24;;;;;;;;;;;;;;;10.31;100.00;101861.28;5020297;28;19964;-43
2023/03/20 04:02:50;;;;;;;;;;;;;;;10.86;100.00;101882.69;5020040;28;20058;-43
2023/03/20 04:05:15;;;;;;;;;;;;;;;10.64;100.00;101837.72;5020200;28;19948;-43
2023/03/20 04:07:43;;;;;;;;;;;;;;;11.24;100.00;101846.16;5018165;28;20079;-43
2023/03/20 04:10:08;;;;;;;;;;;;;;;11.24;100.00;101790.31;5019609;28;20484;-43
2023/03/20 04:12:35;;;;;;;;;;;;;;;12.00;100.00;101762.56;5020903;28;20016;-43
2023/03/20 04:15:00;;;;;;;;;;;;;;;12.06;100.00;101665.28;5020029;28;20003;-43
2023/03/20 04:17:25;;;;;;;;;;;;;;;11.81;100.00;101588.53;5022340;28;19927;-43
2023/03/20 04:19:51;;;;;;;;;;;;;;;12.63;100.00;101566.38;5020537;28;19994;-43
2023/03/20 04:22:16;;;;;;;;;;;;;;;12.53;100.00;101481.09;5022501;28;20015;-43
2023/03/20 04:24:41;;;;;;;;;;;;;;;11.80;100.00;101382.88;5021231;28;19927;-43
2023/03/20 04:27:06;;;;;;;;;;;;;;;11.03;100.00;101297.53;5024523;28;19925;-43
2023/03/20 04:29:31;;;;;;;;;;;;;;;10.54;100.00;101263.88;5019943;28;19921;-43
2023/03/20 04:31:58;;;;;;;;;;;;;;;10.63;100.00;101274.22;5021507;28;20394;-42
2023/03/20 04:34:23;;;;;;;;;;;;;;;11.03;100.00;101277.78;5020828;28;19978;-43
2023/03/20 04:36:49;;;;;;;;;;;;;;;10.99;100.00;101267.44;5019263;28;20755;-43
2023/03/20 04:39:14;;;;;;;;;;;;;;;11.03;100.00;101253.72;5021983;28;20776;-43
2023/03/20 04:41:39;;;;;;;;;;;;;;;11.64;100.00;101264.09;5022184;28;19921;-43
2023/03/20 04:44:05;;;;;;;;;;;;;;;11.93;100.00;101219.38;5020990;28;20262;-43
2023/03/20 04:46:30;;;;;;;;;;;;;;;11.75;100.00;101160.84;5022500;28;20570;-43
2023/03/20 04:48:55;;;;;;;;;;;;;;;11.35;100.00;101082.66;5018939;28;19974;-43
2023/03/20 04:51:20;;;;;;;;;;;;;;;12.44;100.00;101124.44;5020072;28;19921;-43
2023/03/20 04:53:46;;;;;;;;;;;;;;;11.26;100.00;100983.78;5020485;28;19921;-43
2023/03/20 04:56:11;;;;;;;;;;;;;;;11.75;100.00;100984.47;5019895;28;20358;-43
2023/03/20 04:58:37;;;;;;;;;;;;;;;11.85;100.00;100973.22;5020709;28;20428;-43
2023/03/20 05:01:02;;;;;;;;;;;;;;;11.15;100.00;100887.53;5018902;28;19983;-43
2023/03/20 05:03:27;;;;;;;;;;;;;;;11.01;100.00;100894.47;5020661;28;20036;-43
2023/03/20 05:05:52;;;;;;;;;;;;;;;11.84;100.00;100891.50;5022332;28;19967;-43
2023/03/20 05:08:18;;;;;;;;;;;;;;;11.61;100.00;100780.66;5020266;28;20020;-44
2023/03/20 05:10:43;;;;;;;;;;;;;;;11.12;100.00;100717.38;5021103;28;19925;-43
2023/03/20 05:13:08;;;;;;;;;;;;;;;12.18;100.00;100733.69;5021027;28;20007;-43
2023/03/20 05:15:33;;;;;;;;;;;;;;;10.67;100.00;100588.81;5020586;28;20262;-47
2023/03/20 05:17:58;;;;;;;;;;;;;;;11.45;100.00;100646.63;5020616;28;19924;-43
2023/03/20 05:20:24;;;;;;;;;;;;;;;11.93;100.00;100607.47;5021669;28;19920;-43
2023/03/20 05:22:50;;;;;;;;;;;;;;;12.32;100.00;100588.00;5019955;28;19952;-43
2023/03/20 05:25:15;;;;;;;;;;;;;;;11.68;100.00;100501.03;5020578;28;19974;-43
2023/03/20 05:27:40;;;;;;;;;;;;;;;11.27;100.00;100487.75;5021436;28;20463;-43
2023/03/20 05:30:06;;;;;;;;;;;;;;;11.78;100.00;100488.88;5021201;28;19948;-43
2023/03/20 05:32:31;;;;;;;;;;;;;;;11.23;100.00;100437.06;5021165;28;20024;-43
2023/03/20 05:34:56;;;;;;;;;;;;;;;11.32;100.00;100430.97;5019203;28;19921;-43
2023/03/20 05:37:21;;;;;;;;;;;;;;;11.90;100.00;100419.03;5020835;28;19927;-43
2023/03/20 05:39:47;;;;;;;;;;;;;;;12.04;100.00;100383.53;5019986;28;19916;-43
2023/03/20 05:42:12;;;;;;;;;;;;;;;12.08;100.00;100355.94;5020290;28;19927;-44
2023/03/20 05:44:37;;;;;;;;;;;;;;;11.24;100.00;100319.28;5015280;28;19921;-45
2023/03/20 05:47:02;;;;;;;;;;;;;;;10.98;100.00;100291.28;5019250;28;19928;-43
2023/03/20 05:49:28;;;;;;;;;;;;;;;10.94;100.00;100338.59;5020173;28;19998;-43
2023/03/20 05:51:53;;;;;;;;;;;;;;;11.86;100.00;100394.09;5019628;28;20486;-43
2023/03/20 05:54:18;;;;;;;;;;;;;;;11.17;100.00;100354.63;5018674;28;19928;-43
2023/03/20 05:56:43;;;;;;;;;;;;;;;11.48;100.00;100374.88;5021013;28;19931;-43
2023/03/20 05:59:09;;;;;;;;;;;;;;;11.36;100.00;100331.16;5019940;28;19984;-43
2023/03/20 06:01:35;;;;;;;;;;;;;;;12.45;100.00;100329.44;5019352;28;20475;-43
2023/03/20 06:04:00;;;;;;;;;;;;;;;12.97;100.00;100210.34;5018316;28;20041;-43
2023/03/20 06:06:25;;;;;;;;;;;;;;;12.96;100.00;100097.47;5020900;28;19921;-42
2023/03/20 06:08:50;;;;;;;;;;;;;;;13.01;100.00;100037.03;5020621;28;19936;-44
2023/03/20 06:11:15;;;;;;;;;;;;;;;13.61;100.00;99927.59;5022387;28;19921;-42
2023/03/20 06:13:41;;;;;;;;;;;;;;;13.09;100.00;99852.34;5020640;28;19980;-43
2023/03/20 06:16:06;;;;;;;;;;;;;;;13.37;100.00;99816.19;5018731;28;19917;-43
2023/03/20 06:18:31;;;;;;;;;;;;;;;12.19;100.00;99712.72;5019400;28;19921;-43
2023/03/20 06:20:57;;;;;;;;;;;;;;;13.07;100.00;99750.69;5019724;28;19920;-43
2023/03/20 06:23:22;;;;;;;;;;;;;;;11.65;100.00;99751.03;5019729;28;19928;-43
2023/03/20 06:25:47;;;;;;;;;;;;;;;11.07;100.00;99828.00;5019446;28;20010;-42
2023/03/20 06:28:13;;;;;;;;;;;;;;;10.80;100.00;99916.16;5019037;28;20302;-43
2023/03/20 06:30:38;;;;;;;;;;;;;;;11.23;100.00;99996.13;5021059;28;19928;-43
2023/03/20 06:33:05;;;;;;;;;;;;;;;12.01;100.00;100054.84;5021058;28;19917;-43
2023/03/20 06:35:30;;;;;;;;;;;;;;;12.03;100.00;99971.31;5022785;28;19917;-42
2023/03/20 06:37:56;;;;;;;;;;;;;;;12.22;100.00;99984.63;5022333;28;19955;-42
2023/03/20 06:40:22;;;;;;;;;;;;;;;12.03;100.00;99952.38;5021707;28;21140;-43
2023/03/20 06:42:47;;;;;;;;;;;;;;;11.28;100.00;99958.19;5021442;28;19959;-43
2023/03/20 06:45:12;;;;;;;;;;;;;;;11.43;100.00;100005.22;5019111;28;20719;-42
2023/03/20 06:47:37;;;;;;;;;;;;;;;10.99;100.00;100053.28;5022389;28;20903;-43
2023/03/20 06:50:03;;;;;;;;;;;;;;;11.51;100.00;100134.91;5021093;28;20059;-42
2023/03/20 06:52:28;;;;;;;;;;;;;;;13.02;100.00;100168.84;5022181;28;20417;-43
2023/03/20 06:54:55;;;;;;;;;;;;;;;11.48;100.00;99988.78;5019805;28;19952;-43
2023/03/20 06:57:21;;;;;;;;;;;;;;;11.43;100.00;100042.19;5023004;28;20508;-43
2023/03/20 06:59:46;;;;;;;;;;;;;;;12.20;100.00;100060.44;5022254;28;19924;-42
2023/03/20 07:02:12;;;;;;;;;;;;;;;11.30;100.00;100028.66;5026677;28;19928;-42
2023/03/20 07:04:37;;;;;;;;;;;;;;;12.66;100.00;100075.78;5024638;28;20983;-42
2023/03/20 07:07:02;;;;;;;;;;;;;;;11.35;100.00;100043.19;5024207;28;19925;-43
2023/03/20 07:09:28;;;;;;;;;;;;;;;10.57;100.00;100059.09;5025009;28;19920;-43
2023/03/20 07:11:53;;;;;;;;;;;;;;;11.23;100.00;100179.22;5024370;28;19956;-42
2023/03/20 07:14:18;;;;;;;;;;;;;;;10.81;100.00;100202.16;5023943;28;20042;-43
2023/03/20 07:16:43;;;;;;;;;;;;;;;11.30;100.00;100263.31;5024221;28;20020;-43
2023/03/20 07:19:12;;;;;;;;;;;;;;;11.14;100.00;100225.75;5024688;28;21698;-42
2023/03/20 07:21:37;;;;;;;;;;;;;;;10.75;100.00;100238.31;5025662;28;20577;-43
2023/03/20 07:24:02;;;;;;;;;;;;;;;12.72;100.00;100297.06;5021794;28;19917;-43
2023/03/20 07:26:28;;;;;;;;;;;;;;;11.86;100.00;100112.75;5025090;28;19994;-43
2023/03/20 07:28:54;;;;;;;;;;;;;;;11.03;100.00;100068.66;5024703;28;19961;-43
2023/03/20 07:31:20;;;;;;;;;;;;;;;11.11;100.00;100117.53;5024159;28;20827;-43
2023/03/20 07:33:46;;;;;;;;;;;;;;;11.22;100.00;100177.50;5024377;28;19924;-42
2023/03/20 07:36:11;;;;;;;;;;;;;;;11.67;100.00;100187.91;5025400;28;19986;-42
2023/03/20 07:38:36;;;;;;;;;;;;;;;11.67;100.00;100141.47;5024775;28;19935;-43
2023/03/20 07:41:01;;;;;;;;;;;;;;;12.09;100.00;100151.91;5026599;28;19994;-43
2023/03/20 07:43:27;;;;;;;;;;;;;;;11.68;100.00;100062.34;5022747;28;20073;-42
2023/03/20 07:45:52;;;;;;;;;;;;;;;11.34;100.00;100072.47;5024150;28;19917;-43
2023/03/20 07:48:17;;;;;;;;;;;;;;;11.24;100.00;100092.38;5025423;28;19920;-43
2023/03/20 07:50:42;;;;;;;;;;;;;;;12.19;100.00;100123.31;5025796;28;19920;-43
2023/03/20 07:53:07;;;;;;;;;;;;;;;11.48;100.00;100050.69;5026487;28;19920;-43
2023/03/20 07:55:33;;;;;;;;;;;;;;;11.98;100.00;100040.25;5026919;28;19960;-43
2023/03/20 07:57:58;;;;;;;;;;;;;;;12.12;100.00;100078.69;5024304;28;20096;-43
2023/03/20 08:00:23;;;;;;;;;;;;;;;12.16;100.00;100039.03;5025152;28;20063;-43
2023/03/20 08:02:48;;;;;;;;;;;;;;;11.01;100.00;99984.50;5024418;28;20757;-43
2023/03/20 08:05:14;;;;;;;;;;;;;;;11.68;100.00;100067.53;5024490;28;20277;-43
2023/03/20 08:07:39;;;;;;;;;;;;;;;11.46;100.00;100047.28;5026600;28;20696;-43
2023/03/20 08:10:04;;;;;;;;;;;;;;;11.43;100.00;100031.03;5024952;28;19929;-43
2023/03/20 08:12:30;;;;;;;;;;;;;;;12.32;100.00;100039.53;5022785;28;19939;-43
2023/03/20 08:14:55;;;;;;;;;;;;;;;12.41;100.00;99977.31;5024513;28;19923;-43
2023/03/20 08:17:20;;;;;;;;;;;;;;;11.54;100.00;99946.53;5024928;28;20646;-43
2023/03/20 08:19:46;;;;;;;;;;;;;;;12.46;100.00;99913.47;5023618;28;20360;-43
2023/03/20 08:22:11;;;;;;;;;;;;;;;11.73;100.00;99831.72;5022464;28;19975;-42
2023/03/20 08:24:36;;;;;;;;;;;;;;;11.52;100.00;99811.59;5023591;28;19924;-43
2023/03/20 08:27:02;;;;;;;;;;;;;;;11.63;100.00;99856.03;5023875;28;19936;-43
2023/03/20 08:29:27;;;;;;;;;;;;;;;11.79;100.00;99858.25;5023152;28;19927;-43
2023/03/20 08:31:52;;;;;;;;;;;;;;;12.37;100.00;99877.53;5025379;28;19921;-43
2023/03/20 08:34:17;;;;;;;;;;;;;;;11.58;100.00;99821.72;5023265;28;20003;-43
2023/03/20 08:36:43;;;;;;;;;;;;;;;12.26;100.00;99880.38;5023075;28;19935;-43
2023/03/20 08:39:08;;;;;;;;;;;;;;;11.24;100.00;99808.75;5024307;28;19921;-43
2023/03/20 08:41:34;;;;;;;;;;;;;;;11.80;100.00;99841.91;5023443;28;20983;-42
2023/03/20 08:44:00;;;;;;;;;;;;;;;12.67;100.00;99820.78;5022770;28;19921;-43
2023/03/20 08:46:25;;;;;;;;;;;;;;;11.73;100.00;99728.50;5024512;28;19918;-43
2023/03/20 08:48:51;;;;;;;;;;;;;;;12.60;100.00;99703.81;5022595;28;19924;-43
2023/03/20 08:51:16;;;;;;;;;;;;;;;11.72;100.00;99664.88;5023792;28;19920;-43
2023/03/20 08:53:41;;;;;;;;;;;;;;;11.48;100.00;99676.66;5023467;28;19947;-43
2023/03/20 08:56:07;;;;;;;;;;;;;;;11.22;100.00;99661.84;5023690;28;19982;-43
2023/03/20 08:58:32;;;;;;;;;;;;;;;11.36;100.00;99684.72;5024733;28;20377;-43
2023/03/20 09:01:03;;;;;;;;;;;;;;;10.93;100.00;99718.38;5023335;28;19952;-43
2023/03/20 09:03:28;;;;;;;;;;;;;;;12.25;100.00;99766.81;5022447;28;19964;-43
2023/03/20 09:05:53;;;;;;;;;;;;;;;10.93;100.00;99700.34;5021151;28;20445;-43
2023/03/20 09:08:18;;;;;;;;;;;;;;;11.27;100.00;99690.94;5024864;28;20050;-43
2023/03/20 09:10:45;;;;;;;;;;;;;;;10.27;100.00;99689.63;5021596;28;20047;-42
2023/03/20 09:13:10;;;;;;;;;;;;;;;11.47;100.00;99787.59;5021771;28;19925;-42
2023/03/20 09:15:36;;;;;;;;;;;;;;;11.66;100.00;99778.56;5022894;28;20344;-43
2023/03/20 09:18:01;;;;;;;;;;;;;;;11.49;100.00;99788.41;5024075;28;20336;-43
2023/03/20 09:20:26;;;;;;;;;;;;;;;12.70;100.00;99750.91;5023220;28;19943;-43
2023/03/20 09:22:51;;;;;;;;;;;;;;;12.32;100.00;99739.91;5025817;28;19924;-43
2023/03/20 09:25:17;;;;;;;;;;;;;;;11.53;100.00;99684.28;5018012;28;20117;-43
2023/03/20 09:27:42;;;;;;;;;;;;;;;10.84;100.00;99686.75;5022523;28;19925;-43
2023/03/20 09:30:08;;;;;;;;;;;;;;;10.92;100.00;99685.72;5022623;28;19982;-43
2023/03/20 09:32:34;;;;;;;;;;;;;;;10.96;100.00;99677.06;5022877;28;19958;-43
2023/03/20 09:34:59;;;;;;;;;;;;;;;11.39;100.00;99663.16;5021435;28;20035;-43
2023/03/20 09:37:24;;;;;;;;;;;;;;;12.22;100.00;99623.09;5024041;28;19963;-43
2023/03/20 09:39:50;;;;;;;;;;;;;;;12.78;100.00;99599.03;5022458;28;20517;-42
2023/03/20 09:42:22;;;;;;;;;;;;;;;12.00;100.00;99579.00;5021884;28;19971;-43
2023/03/20 09:44:56;;;;;;;;;;;;;;;11.67;100.00;99565.25;5019853;28;19959;-42
2023/03/20 09:47:37;;;;;;;;;;;;;;;11.91;100.00;99572.34;5021250;28;19931;-43
2023/03/20 09:50:02;;;;;;;;;;;;;;;12.90;100.00;99546.94;5021164;28;19921;-43
2023/03/20 09:52:29;;;;;;;;;;;;;;;11.61;100.00;99529.28;5023356;28;19920;-42
2023/03/20 09:55:11;;;;;;;;;;;;;;;11.02;100.00;99597.88;5020525;28;19921;-43
2023/03/20 09:57:38;;;;;;;;;;;;;;;11.42;100.00;99621.81;5022169;28;20087;-43
2023/03/20 10:00:13;;;;;;;;;;;;;;;11.86;100.00;99584.50;5003281;28;19982;-43
2023/03/20 10:02:47;;;;;;;;;;;;;;;11.65;100.00;99588.50;5022721;28;19924;-43
2023/03/20 10:05:18;;;;;;;;;;;;;;;11.67;100.00;99571.25;5022989;28;20015;-43
2023/03/20 10:07:43;;;;;;;;;;;;;;;11.50;100.00;99574.31;5021993;28;20587;-45
2023/03/20 10:10:11;;;;;;;;;;;;;;;11.61;100.00;99545.66;5020047;28;19928;-43
2023/03/20 10:12:36;;;;;;;;;;;;;;;11.13;100.00;99607.94;5023316;28;20926;-43
2023/03/20 10:15:24;;;;;;;;;;;;;;;11.22;100.00;99659.25;5020052;28;19999;-43
2023/03/20 10:17:49;;;;;;;;;;;;;;;11.21;100.00;99716.84;5021068;28;20394;-43
2023/03/20 10:20:34;;;;;;;;;;;;;;;11.05;100.00;99705.19;5022992;28;19928;-43
2023/03/20 10:23:06;;;;;;;;;;;;;;;11.45;100.00;99735.22;5023616;28;20051;-43
2023/03/20 10:25:42;;;;;;;;;;;;;;;11.39;100.00;99700.09;5021152;28;19921;-43
2023/03/20 10:28:19;;;;;;;;;;;;;;;11.66;100.00;99721.78;5022038;28;19929;-43
2023/03/20 10:30:47;;;;;;;;;;;;;;;11.03;100.00;99701.81;5021594;28;20014;-43
2023/03/20 10:33:18;;;;;;;;;;;;;;;11.33;100.00;99725.19;5022372;28;20301;-43
2023/03/20 10:35:54;;;;;;;;;;;;;;;11.33;100.00;99731.19;5007461;28;19973;-42
2023/03/20 10:38:19;;;;;;;;;;;;;;;11.43;100.00;99704.31;5026411;28;19921;-43
2023/03/20 10:40:44;;;;;;;;;;;;;;;11.60;100.00;99672.09;5026912;28;20035;-42
2023/03/20 10:43:15;;;;;;;;;;;;;;;11.39;100.00;99658.00;5021566;28;19920;-43
2023/03/20 10:45:42;;;;;;;;;;;;;;;11.13;100.00;99681.81;5026938;28;19921;-42
2023/03/20 10:48:33;;;;;;;;;;;;;;;11.69;100.00;99724.28;5023398;28;21667;-43
2023/03/20 10:51:00;;;;;;;;;;;;;;;12.41;100.00;99646.69;5007843;28;19923;-43
2023/03/20 10:53:31;;;;;;;;;;;;;;;12.45;100.00;99583.69;5024780;28;19928;-43
2023/03/20 10:55:58;;;;;;;;;;;;;;;11.64;100.00;99545.56;5025154;28;19921;-42
2023/03/20 10:58:23;;;;;;;;;;;;;;;11.11;100.00;99552.97;5025029;28;20471;-43
2023/03/20 11:00:49;;;;;;;;;;;;;;;11.23;100.00;99586.19;5025112;28;19920;-43
2023/03/20 11:03:24;;;;;;;;;;;;;;;11.33;100.00;99598.84;5026003;28;19977;-43
2023/03/20 11:05:52;;;;;;;;;;;;;;;12.55;100.00;99564.44;5025750;28;19917;-43
2023/03/20 11:08:17;;;;;;;;;;;;;;;12.70;100.00;99482.13;5023754;28;19925;-42
2023/03/20 11:10:42;;;;;;;;;;;;;;;13.71;100.00;99401.00;5022781;28;20023;-43
2023/03/20 11:13:15;;;;;;;;;;;;;;;13.78;100.00;99319.59;5026368;28;19952;-42
2023/03/20 11:15:41;;;;;;;;;;;;;;;13.96;100.00;99275.75;5025816;28;19960;-43
2023/03/20 11:18:09;;;;;;;;;;;;;;;13.02;100.00;99224.25;5025449;28;20000;-42
2023/03/20 11:20:54;;;;;;;;;;;;;;;13.51;100.00;99225.78;5023929;28;20041;-43
2023/03/20 11:23:23;;;;;;;;;;;;;;;14.58;100.00;99202.28;5025999;28;19997;-42
2023/03/20 11:25:49;;;;;;;;;;;;;;;12.85;100.00;99160.31;5028807;28;19921;-43
2023/03/20 11:28:32;;;;;;;;;;;;;;;13.65;100.00;99170.88;5028229;28;20412;-42
2023/03/20 11:30:59;;;;;;;;;;;;;;;14.59;100.00;99139.16;5026325;28;19923;-42
2023/03/20 11:33:25;;;;;;;;;;;;;;;14.11;100.00;99118.88;5025175;28;20748;-42
2023/03/20 11:35:51;;;;;;;;;;;;;;;12.85;100.00;99126.69;5012428;28;19924;-43
2023/03/20 11:38:19;;;;;;;;;;;;;;;12.74;100.00;99168.47;5025097;28;19920;-42
2023/03/20 11:40:46;;;;;;;;;;;;;;;11.76;100.00;99208.09;5025371;28;19920;-42
2023/03/20 11:43:13;;;;;;;;;;;;;;;12.19;100.00;99232.47;5023041;28;21706;-42
2023/03/20 11:45:39;;;;;;;;;;;;;;;12.44;100.00;99241.03;5030143;28;19919;-42
2023/03/20 11:48:04;;;;;;;;;;;;;;;13.63;100.00;99219.28;5027344;28;19928;-43
2023/03/20 11:50:36;;;;;;;;;;;;;;;13.56;100.00;99147.97;5023985;28;19923;-42
2023/03/20 11:53:02;;;;;;;;;;;;;;;13.98;100.00;99134.09;5027330;28;19986;-42
2023/03/20 11:55:32;;;;;;;;;;;;;;;12.52;100.00;99132.25;5021187;28;20670;-42
2023/03/20 11:57:58;;;;;;;;;;;;;;;14.11;100.00;99135.25;5020942;28;19928;-42
2023/03/20 12:00:24;;;;;;;;;;;;;;;14.08;100.00;99099.13;5022244;28;19932;-43
2023/03/20 12:02:50;;;;;;;;;;;;;;;13.10;100.00;99114.47;5023432;28;20251;-43
2023/03/20 12:05:28;;;;;;;;;;;;;;;14.04;100.00;99131.25;5024174;28;19975;-42
2023/03/20 12:07:56;;;;;;;;;;;;;;;12.60;100.00;99150.91;5024643;28;19955;-42
2023/03/20 12:10:22;;;;;;;;;;;;;;;12.34;100.00;99181.13;5024601;28;20385;-42
2023/03/20 12:13:11;;;;;;;;;;;;;;;12.42;100.00;99203.25;5024975;28;19935;-43
2023/03/20 12:15:37;;;;;;;;;;;;;;;12.41;100.00;99206.75;5025995;28;20597;-42
2023/03/20 12:18:08;;;;;;;;;;;;;;;13.32;100.00;99202.41;5025869;28;19974;-43
2023/03/20 12:20:53;;;;;;;;;;;;;;;11.42;100.00;99215.19;5025163;28;20324;-43
2023/03/20 12:23:28;;;;;;;;;;;;;;;12.08;100.00;99236.25;5023578;28;19916;-43
2023/03/20 12:25:57;;;;;;;;;;;;;;;11.89;100.00;99235.22;5024746;28;20902;-43
2023/03/20 12:28:35;;;;;;;;;;;;;;;13.36;100.00;99214.34;5023896;28;19928;-42
2023/03/20 12:31:00;;;;;;;;;;;;;;;13.43;100.00;99167.50;5023763;28;19916;-43
2023/03/20 12:33:25;;;;;;;;;;;;;;;13.92;100.00;99129.22;5024072;28;19913;-42